Etusivu
METAR-TAF:

METAR-TAF

Lentoasemat :

Chambéry / Aix-les-Bains, Ranska

Leveyspiiri: 45-39N, Pituuspiiri: 005-53E, korkeus merenpinnasta: 235 m

Tämänhetkinen sää

Tämä raportti tehtiin 30 minuuttia sitten, kello 00.30 UTC
Tuuli 2 kn eri suunnista
Lämpötila 0°C
Kosteus 93%
Ilmanpaine 1024 hPa
Näkyvyys 10 km tai enemmän
ei pilviä alle 1500 m:ssä eikä cumulonimbus-pilviä

METAR: LFLB 200030Z AUTO VRB02KT CAVOK M00/M01 Q1024

Aika: 02:00 (01:00 UTC)

Sääennuste

Tämä raportti tehtiin 8 tuntia ja 0 minuuttia sitten, kello 17.00 UTC
Ennuste voimassa 19. päivästä klo 18 UTC - 20. päivään klo 18 UTC
Tuuli 3 kn eri suunnista
Näkyvyys 10 km tai enemmän
ei pilviä alle 1500 m:ssä eikä cumulonimbus-pilviä
Todennäköisyys 40% :
Ajoittain
20. päivästä klo 03 UTC - 20. päivään klo 08 UTC
Näkyvyys: 4000 m
utua

TAF: LFLB 191700Z 1918/2018 VRB03KT CAVOK PROB40 TEMPO 2003/2008 4000 BR

Säähavainnot ja -ennusteet yli 4000 lentoasemalta (METAR- ja TAF-raportit).

Käytössä olevat sääasemat on merkitty karttaan keltaisilla ja punaisilla pisteillä.

Aseta hiiri pisteen päälle nähdäksesi sääaseman nimen.

Klikkaa sitten nähdäksesi säähavainnot ja -ennusteet.

Kartan vaihtaminen: klikkaa mustalla rastilla varustettuja vihreitä pisteitä, niin voit zoomata sisään; viivalla varustettua vihreää pistettä, niin voit zoomata ulos tai vihreitä nuolia, niin pääset viereisille kartoille.


METAR-TAF: